createdAt,value
2019-02-03T06:23:57.219Z,3
2019-02-03T06:28:57.473Z,7
2019-02-03T06:31:27.717Z,10
2019-02-03T06:33:57.830Z,13
2019-02-03T06:35:27.896Z,17
2019-02-03T06:36:57.971Z,20
2019-02-03T06:38:58.142Z,23
2019-02-03T06:39:28.123Z,27
2019-02-03T06:40:28.216Z,30
2019-02-03T06:41:28.290Z,33
2019-02-03T06:43:28.393Z,37
2019-02-03T06:43:58.421Z,40
2019-02-03T06:44:58.465Z,47
2019-02-03T06:45:28.500Z,50
2019-02-03T06:46:28.566Z,57
2019-02-03T06:46:58.639Z,60
2019-02-03T06:47:28.649Z,63
2019-02-03T06:47:59.357Z,67
2019-02-03T06:48:28.673Z,73
2019-02-03T06:48:58.729Z,77
2019-02-03T06:49:28.769Z,80
2019-02-03T06:49:58.805Z,83
2019-02-03T06:50:28.805Z,87
2019-02-03T06:50:58.836Z,90
2019-02-03T06:53:28.985Z,93
2019-02-03T06:53:59.007Z,97
2019-02-03T06:54:59.125Z,90
2019-02-03T06:55:29.107Z,103
2019-02-03T06:55:59.181Z,117
2019-02-03T06:56:29.164Z,127
2019-02-03T06:56:59.239Z,130
2019-02-03T06:57:29.229Z,127
2019-02-03T06:57:59.302Z,130
2019-02-03T06:58:29.380Z,133
2019-02-03T06:58:59.400Z,140
2019-02-03T06:59:29.375Z,147
2019-02-03T06:59:59.423Z,150
2019-02-03T07:01:29.537Z,153
2019-02-03T07:01:59.556Z,170
2019-02-03T07:02:29.623Z,187
2019-02-03T07:02:59.561Z,197
2019-02-03T07:03:29.593Z,203
2019-02-03T07:03:59.677Z,213
2019-02-03T07:04:29.686Z,220
2019-02-03T07:04:59.753Z,233
2019-02-03T07:05:29.779Z,250
2019-02-03T07:05:59.745Z,263
2019-02-03T07:06:29.798Z,277
2019-02-03T07:06:59.851Z,290
2019-02-03T07:07:29.958Z,307
2019-02-03T07:07:59.904Z,323
2019-02-03T07:08:29.969Z,340
2019-02-03T07:08:59.974Z,353
2019-02-03T07:09:30.018Z,330
2019-02-03T07:10:00.750Z,273
2019-02-03T07:10:30.079Z,303
2019-02-03T07:11:00.243Z,347
2019-02-03T07:11:30.139Z,417
2019-02-03T07:12:00.187Z,443
2019-02-03T07:12:30.142Z,367
2019-02-03T07:13:00.202Z,347
2019-02-03T07:13:30.211Z,397
2019-02-03T07:14:00.724Z,457
2019-02-03T07:14:30.358Z,533
2019-02-03T07:15:00.802Z,630
2019-02-03T07:15:30.389Z,663
2019-02-03T07:16:00.707Z,683
2019-02-03T07:16:40.396Z,700
2019-02-03T07:17:01.098Z,720
2019-02-03T07:17:30.538Z,750
2019-02-03T07:18:00.676Z,787
2019-02-03T07:18:30.563Z,810
2019-02-03T07:19:01.779Z,833
2019-02-03T07:19:30.669Z,850
2019-02-03T07:20:01.169Z,853
2019-02-03T07:20:30.694Z,843
2019-02-03T07:21:00.995Z,820
2019-02-03T07:21:30.693Z,823
2019-02-03T07:22:00.753Z,850
2019-02-03T07:22:30.767Z,860
2019-02-03T07:23:30.872Z,903
2019-02-03T07:24:02.271Z,947
2019-02-03T07:24:30.930Z,963
2019-02-03T07:25:02.549Z,983
2019-02-03T07:25:31.114Z,997
2019-02-03T07:26:01.078Z,1010
2019-02-03T07:26:31.051Z,1040
2019-02-03T07:27:01.194Z,1057
2019-02-03T07:27:31.111Z,1047
2019-02-03T07:28:01.884Z,970
2019-02-03T07:28:31.125Z,953
2019-02-03T07:29:01.174Z,1067
2019-02-03T07:29:31.283Z,1113
2019-02-03T07:30:01.559Z,1137
2019-02-03T07:30:31.299Z,1157
2019-02-03T07:31:01.996Z,1177
2019-02-03T07:31:31.359Z,1200
2019-02-03T07:32:01.367Z,1220
2019-02-03T07:32:31.477Z,1243
2019-02-03T07:33:01.403Z,1273
2019-02-03T07:33:31.464Z,1297
2019-02-03T07:34:01.468Z,1310
2019-02-03T07:34:31.517Z,1313
2019-02-03T07:35:02.136Z,1307
2019-02-03T07:35:31.632Z,1303
2019-02-03T07:37:01.703Z,1307
2019-02-03T07:37:31.834Z,1320
2019-02-03T07:38:01.762Z,1337
2019-02-03T07:38:31.774Z,1370
2019-02-03T07:39:01.825Z,1403
2019-02-03T07:39:31.821Z,1417
2019-02-03T07:40:11.939Z,1420
2019-02-03T07:40:31.882Z,1427
2019-02-03T07:41:02.096Z,1437
2019-02-03T07:41:31.926Z,1453
2019-02-03T07:42:01.955Z,1477
2019-02-03T07:42:32.012Z,1513
2019-02-03T07:43:02.040Z,1557
2019-02-03T07:43:32.079Z,1587
2019-02-03T07:44:02.088Z,1610
2019-02-03T07:44:32.170Z,1623
2019-02-03T07:45:04.661Z,1657
2019-02-03T07:45:32.169Z,1673
2019-02-03T07:46:02.233Z,1680
2019-02-03T07:47:32.360Z,1690
2019-02-03T07:48:02.364Z,1700
2019-02-03T07:48:32.382Z,1717
2019-02-03T07:49:02.438Z,1737
2019-02-03T07:49:32.468Z,1743
2019-02-03T07:50:02.684Z,1753
2019-02-03T07:50:32.479Z,1770
2019-02-03T07:51:02.549Z,1797
2019-02-03T07:51:32.543Z,1823
2019-02-03T07:52:02.615Z,1873
2019-02-03T07:52:32.667Z,1917
2019-02-03T07:53:02.682Z,1943
2019-02-03T07:53:32.704Z,1977
2019-02-03T07:54:08.209Z,2017
2019-02-03T07:54:32.774Z,2043
2019-02-03T07:55:02.989Z,2017
2019-02-03T07:55:32.856Z,2023
2019-02-03T07:56:03.199Z,2063
2019-02-03T07:56:32.896Z,2127
2019-02-03T07:57:02.953Z,2183
2019-02-03T07:57:32.981Z,2213
2019-02-03T07:58:02.966Z,2247
2019-02-03T07:58:33.008Z,2253
2019-02-03T07:59:03.054Z,2233
2019-02-03T07:59:33.110Z,2217
2019-02-03T08:00:03.074Z,2213
2019-02-03T08:00:33.164Z,2220
2019-02-03T08:01:03.172Z,2287
2019-02-03T08:01:33.195Z,2320
2019-02-03T08:02:03.226Z,2290
2019-02-03T08:02:33.273Z,2257
2019-02-03T08:03:03.306Z,2253
2019-02-03T08:03:33.313Z,2303
2019-02-03T08:04:03.328Z,2337
2019-02-03T08:04:33.398Z,2340
2019-02-03T08:05:03.473Z,2347
2019-02-03T08:05:33.468Z,2380
2019-02-03T08:06:03.486Z,2390
2019-02-03T08:06:33.510Z,2407
2019-02-03T08:07:03.539Z,2493
2019-02-03T08:07:33.576Z,2487
2019-02-03T08:08:03.627Z,2417
2019-02-03T08:08:33.614Z,2230
2019-02-03T08:09:03.698Z,2187
2019-02-03T08:09:33.694Z,2503
2019-02-03T08:10:03.727Z,2647
2019-02-03T08:10:33.805Z,2687
2019-02-03T08:11:04.726Z,2703
2019-02-03T08:11:33.806Z,2697
2019-02-03T08:12:03.844Z,2687
2019-02-03T08:12:33.846Z,2660
2019-02-03T08:13:03.915Z,2477
2019-02-03T08:13:33.946Z,2247
2019-02-03T08:14:03.976Z,2020
2019-02-03T08:14:34.038Z,1890
2019-02-03T08:15:04.037Z,1817
2019-02-03T08:15:34.057Z,1853
2019-02-03T08:16:04.054Z,1993
2019-02-03T08:16:34.142Z,2040
2019-02-03T08:17:04.165Z,1923
2019-02-03T08:17:34.162Z,1833
2019-02-03T08:18:04.414Z,1737
2019-02-03T08:18:34.243Z,1707
2019-02-03T08:19:04.306Z,1727
2019-02-03T08:19:34.360Z,1733
2019-02-03T08:20:04.404Z,1910
2019-02-03T08:20:34.362Z,2123
2019-02-03T08:21:04.407Z,2297
2019-02-03T08:21:34.462Z,2557
2019-02-03T08:22:04.432Z,2780
2019-02-03T08:22:34.510Z,2837
2019-02-03T08:23:04.502Z,2753
2019-02-03T08:23:34.548Z,2710
2019-02-03T08:24:04.556Z,2637
2019-02-03T08:24:34.618Z,2523
2019-02-03T08:25:04.674Z,2497
2019-02-03T08:25:34.672Z,2613
2019-02-03T08:26:04.686Z,2697
2019-02-03T08:26:34.697Z,2850
2019-02-03T08:27:04.739Z,3190
2019-02-03T08:27:34.758Z,3260
2019-02-03T08:28:04.808Z,3067
2019-02-03T08:28:34.823Z,2557
2019-02-03T08:29:04.858Z,2420
2019-02-03T08:29:34.937Z,2777
2019-02-03T08:30:04.913Z,3053
2019-02-03T08:30:34.934Z,3170
2019-02-03T08:31:04.995Z,3143
2019-02-03T08:31:35.014Z,3077
2019-02-03T08:32:05.033Z,3160
2019-02-03T08:32:35.057Z,3010
2019-02-03T08:33:05.086Z,2690
2019-02-03T08:33:35.131Z,2747
2019-02-03T08:34:05.194Z,2913
2019-02-03T08:34:35.240Z,2830
2019-02-03T08:35:05.271Z,2760
2019-02-03T08:35:35.263Z,3003
2019-02-03T08:36:05.321Z,3287
2019-02-03T08:36:35.335Z,3360
2019-02-03T08:37:05.560Z,3387
2019-02-03T08:37:35.412Z,3360
2019-02-03T08:38:05.445Z,3000
2019-02-03T08:38:35.485Z,2640
2019-02-03T08:39:05.484Z,2453
2019-02-03T08:39:35.547Z,2127
2019-02-03T08:40:05.613Z,1873
2019-02-03T08:40:37.240Z,1763
2019-02-03T08:41:05.609Z,1733
2019-02-03T08:41:35.704Z,1737
2019-02-03T08:42:05.699Z,1787
2019-02-03T08:42:35.709Z,1853
2019-02-03T08:43:05.752Z,2000
2019-02-03T08:43:35.832Z,2370
2019-02-03T08:44:05.799Z,2980
2019-02-03T08:44:35.885Z,3693
2019-02-03T08:45:05.875Z,4277
2019-02-03T08:45:35.973Z,4550
2019-02-03T08:46:05.935Z,4703
2019-02-03T08:46:35.952Z,4837
2019-02-03T08:47:05.999Z,4783
2019-02-03T08:47:35.996Z,4173
2019-02-03T08:48:06.055Z,3190
2019-02-03T08:48:36.086Z,2503
2019-02-03T08:49:06.116Z,2197
2019-02-03T08:49:36.129Z,2130
2019-02-03T08:50:06.177Z,2167
2019-02-03T08:50:36.169Z,2170
2019-02-03T08:51:06.242Z,2277
2019-02-03T08:51:36.456Z,2450
2019-02-03T08:52:06.309Z,2633
2019-02-03T08:52:37.002Z,2810
2019-02-03T08:53:06.341Z,2977
2019-02-03T08:53:36.387Z,2970
2019-02-03T08:54:06.400Z,2593
2019-02-03T08:54:46.547Z,2470
2019-02-03T08:55:06.442Z,2397
2019-02-03T08:55:36.476Z,2623
2019-02-03T08:56:06.535Z,2807
2019-02-03T08:56:36.596Z,2993
2019-02-03T08:57:06.567Z,3190
2019-02-03T08:57:36.615Z,3407
2019-02-03T08:58:06.662Z,3800
2019-02-03T08:58:36.697Z,4370
2019-02-03T08:59:06.730Z,4573
2019-02-03T08:59:36.768Z,4490
2019-02-03T09:00:06.779Z,4440
2019-02-03T09:00:36.870Z,4370
2019-02-03T09:01:06.840Z,4657
2019-02-03T09:01:36.894Z,4850
2019-02-03T09:02:06.906Z,4550
2019-02-03T09:02:36.935Z,4097
2019-02-03T09:03:08.632Z,3763
2019-02-03T09:03:36.966Z,3540
2019-02-03T09:04:07.033Z,3413
2019-02-03T09:04:37.031Z,3570
2019-02-03T09:05:07.090Z,3763
2019-02-03T09:05:37.137Z,4023
2019-02-03T09:06:07.156Z,4053
2019-02-03T09:06:37.525Z,4077
2019-02-03T09:07:07.224Z,3880
2019-02-03T09:07:37.695Z,3810
2019-02-03T09:08:07.262Z,3920
2019-02-03T09:08:37.286Z,4003
2019-02-03T09:09:07.337Z,4320
2019-02-03T09:09:37.367Z,4550
2019-02-03T09:10:07.410Z,4630
2019-02-03T09:10:47.721Z,5097
2019-02-03T09:11:07.468Z,5570
2019-02-03T09:11:37.519Z,5980
2019-02-03T09:12:07.522Z,6163
2019-02-03T09:12:37.562Z,6027
2019-02-03T09:13:07.582Z,6017
2019-02-03T09:13:37.789Z,6053
2019-02-03T09:14:07.636Z,5863
2019-02-03T09:14:37.686Z,5430
2019-02-03T09:15:07.708Z,4907
2019-02-03T09:15:37.724Z,4603
2019-02-03T09:16:07.728Z,4577
2019-02-03T09:16:37.783Z,4510
2019-02-03T09:17:07.796Z,4140
2019-02-03T09:17:37.860Z,3807
2019-02-03T09:18:07.853Z,3567
2019-02-03T09:18:37.939Z,3870
2019-02-03T09:19:07.909Z,4873
2019-02-03T09:19:37.950Z,5837
2019-02-03T09:20:07.982Z,6000
2019-02-03T09:20:38.058Z,5723
2019-02-03T09:21:08.034Z,5750
2019-02-03T09:21:38.152Z,5980
2019-02-03T09:22:08.207Z,6000
2019-02-03T09:22:39.997Z,5617
2019-02-03T09:23:08.213Z,5280
2019-02-03T09:23:38.197Z,5047
2019-02-03T09:24:08.290Z,5367
2019-02-03T09:24:38.271Z,5740
2019-02-03T09:25:08.346Z,5500
2019-02-03T09:25:38.571Z,4743
2019-02-03T09:26:08.720Z,4550
2019-02-03T09:26:38.523Z,4173
2019-02-03T09:27:08.490Z,3990
2019-02-03T09:27:38.487Z,4267
2019-02-03T09:28:08.540Z,5200
2019-02-03T09:28:38.537Z,5580
2019-02-03T09:29:08.612Z,5727
2019-02-03T09:29:38.653Z,5917
2019-02-03T09:30:08.656Z,5773
2019-02-03T09:30:38.651Z,5720
2019-02-03T09:31:08.720Z,5760
2019-02-03T09:31:38.776Z,5607
2019-02-03T09:32:11.170Z,5637
2019-02-03T09:32:38.783Z,5897
2019-02-03T09:33:38.874Z,5710
2019-02-03T09:34:08.862Z,5440
2019-02-03T09:34:38.912Z,5553
2019-02-03T09:35:08.990Z,5770
2019-02-03T09:35:39.008Z,5907
2019-02-03T09:36:09.050Z,6123
2019-02-03T09:36:39.087Z,6163
2019-02-03T09:37:09.112Z,6223
2019-02-03T09:37:39.094Z,6247
2019-02-03T09:38:09.223Z,6310
2019-02-03T09:38:39.208Z,6183
2019-02-03T09:39:09.224Z,6050
2019-02-03T09:39:39.212Z,5710
2019-02-03T09:40:09.268Z,5663
2019-02-03T09:40:39.333Z,5883
2019-02-03T09:41:09.357Z,6020
2019-02-03T09:41:39.350Z,6183
2019-02-03T09:42:09.423Z,6260
2019-02-03T09:42:39.401Z,6323
2019-02-03T09:43:09.475Z,6347
2019-02-03T09:44:09.502Z,6327
2019-02-03T09:44:39.537Z,6367
2019-02-03T09:45:09.569Z,6443
2019-02-03T09:45:39.629Z,6553
2019-02-03T09:46:09.630Z,6660
2019-02-03T09:46:39.697Z,6780
2019-02-03T09:47:09.719Z,6860
2019-02-03T09:47:39.722Z,6887
2019-02-03T09:48:09.696Z,6897
2019-02-03T09:48:39.758Z,6893
2019-02-03T09:49:09.839Z,6753
2019-02-03T09:49:40.614Z,6780
2019-02-03T09:50:09.830Z,6833
2019-02-03T09:50:39.913Z,6850
2019-02-03T09:51:09.932Z,6857
2019-02-03T09:51:39.989Z,6833
2019-02-03T09:52:09.992Z,6807
2019-02-03T09:52:40.020Z,6777
2019-02-03T09:53:10.062Z,6740
2019-02-03T09:53:40.114Z,6703
2019-02-03T09:54:10.115Z,6693
2019-02-03T09:54:40.148Z,6683
2019-02-03T09:55:10.175Z,6673
2019-02-03T09:55:40.219Z,6677
2019-02-03T09:56:10.237Z,6687
2019-02-03T09:57:10.325Z,6673
2019-02-03T09:57:40.332Z,6653
2019-02-03T09:58:10.358Z,6663
2019-02-03T09:58:40.379Z,6707
2019-02-03T09:59:10.385Z,6773
2019-02-03T09:59:40.416Z,6820
2019-02-03T10:00:10.489Z,6833
2019-02-03T10:00:40.505Z,6830
2019-02-03T10:01:10.538Z,6827
2019-02-03T10:01:40.578Z,6823
2019-02-03T10:02:10.613Z,6807
2019-02-03T10:02:40.619Z,6797
2019-02-03T10:03:10.625Z,6800
2019-02-03T10:03:40.690Z,6817
2019-02-03T10:04:10.706Z,6820
2019-02-03T10:04:40.719Z,6827
2019-02-03T10:05:10.754Z,6867
2019-02-03T10:05:40.774Z,6900
2019-02-03T10:06:40.864Z,6907
2019-02-03T10:07:10.935Z,6927
2019-02-03T10:07:40.887Z,6943
2019-02-03T10:08:41.146Z,6967
2019-02-03T10:09:10.991Z,6993
2019-02-03T10:09:41.055Z,7010
2019-02-03T10:10:41.152Z,7027
2019-02-03T10:11:11.766Z,7107
2019-02-03T10:11:41.138Z,7190
2019-02-03T10:12:11.229Z,7233
2019-02-03T10:12:41.251Z,7247
2019-02-03T10:13:11.273Z,7273
2019-02-03T10:13:41.306Z,7313
2019-02-03T10:14:11.309Z,7347
2019-02-03T10:14:41.381Z,7397
2019-02-03T10:15:11.384Z,7467
2019-02-03T10:15:41.464Z,7553
2019-02-03T10:16:11.455Z,7627
2019-02-03T10:16:41.486Z,7707
2019-02-03T10:17:11.545Z,7820
2019-02-03T10:17:41.575Z,7940
2019-02-03T10:18:11.683Z,8030
2019-02-03T10:18:41.601Z,8050
2019-02-03T10:19:11.635Z,8017
2019-02-03T10:19:41.665Z,7960
2019-02-03T10:20:11.701Z,7917
2019-02-03T10:20:41.722Z,7960
2019-02-03T10:21:11.784Z,8070
2019-02-03T10:21:41.778Z,8180
2019-02-03T10:22:11.881Z,8237
2019-02-03T10:22:41.904Z,8180
2019-02-03T10:23:11.924Z,8177
2019-02-03T10:23:41.915Z,8280
2019-02-03T10:24:11.945Z,8277
2019-02-03T10:24:42.589Z,8253
2019-02-03T10:25:11.999Z,8240
2019-02-03T10:25:42.040Z,8330
2019-02-03T10:26:12.072Z,8490
2019-02-03T10:26:42.062Z,8603
2019-02-03T10:27:12.176Z,8667
2019-02-03T10:27:42.135Z,8663
2019-02-03T10:28:12.193Z,8670
2019-02-03T10:28:42.227Z,8667
2019-02-03T10:29:12.243Z,8643
2019-02-03T10:29:42.288Z,8617
2019-02-03T10:30:12.306Z,8623
2019-02-03T10:30:42.326Z,8620
2019-02-03T10:31:12.382Z,8670
2019-02-03T10:31:42.434Z,8740
2019-02-03T10:32:12.456Z,8783
2019-02-03T10:32:42.475Z,8780
2019-02-03T10:33:12.462Z,8760
2019-02-03T10:33:42.528Z,8763
2019-02-03T10:34:12.613Z,8800
2019-02-03T10:34:42.553Z,8860
2019-02-03T10:35:22.888Z,8897
2019-02-03T10:35:42.671Z,8910
2019-02-03T10:36:12.802Z,8917
2019-02-03T10:36:42.706Z,8950
2019-02-03T10:37:12.787Z,8963
2019-02-03T10:37:42.775Z,8937
2019-02-03T10:38:12.798Z,8877
2019-02-03T10:38:42.828Z,8817
2019-02-03T10:39:12.882Z,8820
2019-02-03T10:39:42.857Z,8870
2019-02-03T10:40:12.917Z,8960
2019-02-03T10:40:42.953Z,9077
2019-02-03T10:41:23.363Z,9170
2019-02-03T10:41:43.021Z,9263
2019-02-03T10:42:13.061Z,9340
2019-02-03T10:42:43.079Z,9387
2019-02-03T10:43:13.074Z,9417
2019-02-03T10:43:43.134Z,9443
2019-02-03T10:44:13.179Z,9470
2019-02-03T10:44:43.211Z,9507
2019-02-03T10:45:13.199Z,9527
2019-02-03T10:45:43.285Z,9483
2019-02-03T10:46:13.325Z,9573
2019-02-03T10:46:43.358Z,9667
2019-02-03T10:47:13.411Z,9753
2019-02-03T10:47:43.349Z,9820
2019-02-03T10:48:13.417Z,9903
2019-02-03T10:48:43.440Z,10000
2019-02-03T10:49:13.524Z,10107
2019-02-03T10:49:46.293Z,10187
2019-02-03T10:50:13.555Z,10270
2019-02-03T10:50:43.558Z,10317
2019-02-03T10:51:13.632Z,10320
2019-02-03T10:51:43.632Z,10250
2019-02-03T10:52:13.708Z,10300
2019-02-03T10:52:43.660Z,10393
2019-02-03T10:53:13.759Z,10567
2019-02-03T10:53:43.724Z,10647
2019-02-03T10:54:13.771Z,10750
2019-02-03T10:54:43.781Z,10830
2019-02-03T10:55:13.849Z,10887
2019-02-03T10:55:43.859Z,10880
2019-02-03T10:56:13.907Z,10727
2019-02-03T10:56:43.908Z,10770
2019-02-03T10:57:13.957Z,11030
2019-02-03T10:57:43.972Z,11197
2019-02-03T10:58:14.051Z,11177
2019-02-03T10:58:44.027Z,11423
2019-02-03T10:59:14.059Z,11737
2019-02-03T10:59:44.085Z,11850
2019-02-03T11:00:18.019Z,11920
2019-02-03T11:00:44.197Z,11940
2019-02-03T11:01:14.298Z,11943
2019-02-03T11:01:44.253Z,11867
2019-02-03T11:02:14.726Z,11880
2019-02-03T11:02:44.322Z,12097
2019-02-03T11:03:14.308Z,12367
2019-02-03T11:03:44.368Z,12323
2019-02-03T11:04:14.365Z,11677
2019-02-03T11:04:44.466Z,11607
2019-02-03T11:05:14.426Z,11340
2019-02-03T11:05:44.484Z,11307
2019-02-03T11:06:14.487Z,12160
2019-02-03T11:06:44.511Z,13197
2019-02-03T11:07:14.838Z,13653
2019-02-03T11:07:44.620Z,13867
2019-02-03T11:08:14.817Z,13820
2019-02-03T11:08:44.692Z,13517
2019-02-03T11:09:14.721Z,13480
2019-02-03T11:09:44.784Z,13920
2019-02-03T11:10:14.735Z,14413
2019-02-03T11:10:44.789Z,14617
2019-02-03T11:11:14.844Z,14703
2019-02-03T11:11:44.885Z,14323
2019-02-03T11:12:14.932Z,13783
2019-02-03T11:12:44.917Z,14080
2019-02-03T11:13:14.972Z,14670
2019-02-03T11:13:45.028Z,15070
2019-02-03T11:14:15.037Z,15243
2019-02-03T11:14:45.050Z,15420
2019-02-03T11:15:15.089Z,16010
2019-02-03T11:15:45.116Z,16143
2019-02-03T11:16:15.113Z,15983
2019-02-03T11:16:45.179Z,16310
2019-02-03T11:17:15.238Z,16683
2019-02-03T11:17:45.236Z,16983
2019-02-03T11:18:15.269Z,17050
2019-02-03T11:18:45.300Z,17280
2019-02-03T11:19:15.332Z,17560
2019-02-03T11:19:45.369Z,18153
2019-02-03T11:20:18.212Z,19030
2019-02-03T11:20:45.475Z,18660
2019-02-03T11:21:15.456Z,18467
2019-02-03T11:21:45.496Z,19180
2019-02-03T11:22:15.570Z,19970
2019-02-03T11:22:45.548Z,19713
2019-02-03T11:23:15.575Z,19730
2019-02-03T11:23:45.599Z,20800
2019-02-03T11:24:15.643Z,20923
2019-02-03T11:24:45.674Z,21597
2019-02-03T11:25:15.696Z,20990
2019-02-03T11:25:45.730Z,19537
2019-02-03T11:26:15.762Z,18600
2019-02-03T11:26:45.796Z,18133
2019-02-03T11:27:15.873Z,17780
2019-02-03T11:27:45.867Z,19333
2019-02-03T11:28:15.879Z,20673
2019-02-03T11:28:45.927Z,21613
2019-02-03T11:29:15.943Z,21907
2019-02-03T11:29:45.985Z,22973
2019-02-03T11:30:16.017Z,22920
2019-02-03T11:30:46.310Z,22267
2019-02-03T11:31:16.066Z,21583
2019-02-03T11:31:46.059Z,21723
2019-02-03T11:32:16.153Z,21377
2019-02-03T11:32:46.183Z,21187
2019-02-03T11:33:16.190Z,21847
2019-02-03T11:33:46.221Z,22830
2019-02-03T11:34:16.247Z,23397
2019-02-03T11:34:46.293Z,23630
2019-02-03T11:35:16.324Z,23070
2019-02-03T11:35:46.314Z,22990
2019-02-03T11:36:16.345Z,22517
2019-02-03T11:36:46.427Z,22630
2019-02-03T11:37:16.629Z,22947
2019-02-03T11:37:46.456Z,23427
2019-02-03T11:38:16.505Z,23327
2019-02-03T11:38:46.521Z,22293
2019-02-03T11:39:16.550Z,22697
2019-02-03T11:39:46.570Z,22730
2019-02-03T11:40:16.784Z,22613
2019-02-03T11:40:46.614Z,22357
2019-02-03T11:41:16.692Z,22293
2019-02-03T11:41:48.904Z,22517
2019-02-03T11:42:16.744Z,22733
2019-02-03T11:42:46.750Z,23110
2019-02-03T11:43:16.816Z,23333
2019-02-03T11:43:46.814Z,23477
2019-02-03T11:44:16.897Z,23593
2019-02-03T11:44:46.861Z,23870
2019-02-03T11:45:16.948Z,23670
2019-02-03T11:45:46.989Z,23037
2019-02-03T11:46:16.965Z,22723
2019-02-03T11:46:46.977Z,23003
2019-02-03T11:47:17.101Z,23073
2019-02-03T11:47:47.062Z,23100
2019-02-03T11:48:17.123Z,23237
2019-02-03T11:48:47.126Z,23190
2019-02-03T11:49:17.227Z,23130
2019-02-03T11:49:47.197Z,22897
2019-02-03T11:50:17.285Z,22753
2019-02-03T11:50:47.264Z,22697
2019-02-03T11:51:17.360Z,22620
2019-02-03T11:51:47.322Z,22720
2019-02-03T11:52:17.469Z,22803
2019-02-03T11:52:47.385Z,22917
2019-02-03T11:53:17.476Z,23073
2019-02-03T11:53:47.447Z,22877
2019-02-03T11:54:17.525Z,22650
2019-02-03T11:54:47.524Z,22340
2019-02-03T11:55:17.617Z,22567
2019-02-03T11:55:47.551Z,22490
2019-02-03T11:56:17.664Z,22403
2019-02-03T11:56:47.612Z,22317
2019-02-03T11:57:17.750Z,22330
2019-02-03T11:57:47.712Z,22143
2019-02-03T11:58:17.780Z,22137
2019-02-03T11:58:47.797Z,22287
2019-02-03T11:59:17.801Z,22297
2019-02-03T11:59:47.826Z,22057
2019-02-03T12:00:17.900Z,21700
2019-02-03T12:00:47.937Z,21583
2019-02-03T12:01:18.002Z,21610
2019-02-03T12:01:47.943Z,21557
2019-02-03T12:02:18.085Z,21473
2019-02-03T12:02:48.022Z,21447
2019-02-03T12:03:18.089Z,21547
2019-02-03T12:03:48.027Z,21620
2019-02-03T12:04:18.119Z,21623
2019-02-03T12:04:48.150Z,21573
2019-02-03T12:05:18.239Z,21527
2019-02-03T12:05:48.188Z,21497
2019-02-03T12:06:18.268Z,21450
2019-02-03T12:06:48.252Z,21340
2019-02-03T12:07:18.283Z,21263
2019-02-03T12:08:18.358Z,21087
2019-02-03T12:08:48.364Z,20863
2019-02-03T12:09:18.381Z,20683
2019-02-03T12:09:48.467Z,20647
2019-02-03T12:10:18.508Z,20627
2019-02-03T12:10:48.517Z,20617
2019-02-03T12:11:18.576Z,20633
2019-02-03T12:12:00.482Z,20760
2019-02-03T12:12:18.671Z,20907
2019-02-03T12:12:48.643Z,21050
2019-02-03T12:13:18.688Z,21203
2019-02-03T12:13:48.742Z,21257
2019-02-03T12:14:18.745Z,21183
2019-02-03T12:14:48.763Z,21050
2019-02-03T12:15:18.803Z,20980
2019-02-03T12:15:48.809Z,20933
2019-02-03T12:16:18.866Z,20913
2019-02-03T12:16:48.853Z,20847
2019-02-03T12:17:18.947Z,20893
2019-02-03T12:17:48.940Z,20990
2019-02-03T12:18:18.983Z,21027
2019-02-03T12:18:48.972Z,21097
2019-02-03T12:19:19.046Z,21200
2019-02-03T12:19:49.042Z,21110
2019-02-03T12:20:19.113Z,21300
2019-02-03T12:20:49.076Z,21690
2019-02-03T12:21:19.170Z,21487
2019-02-03T12:21:49.186Z,21290
2019-02-03T12:22:19.272Z,21567
2019-02-03T12:22:49.223Z,21547
2019-02-03T12:23:19.291Z,21643
2019-02-03T12:23:49.293Z,21707
2019-02-03T12:24:19.391Z,21837
2019-02-03T12:24:49.350Z,21803
2019-02-03T12:25:19.377Z,21960
2019-02-03T12:25:49.476Z,22107
2019-02-03T12:26:19.476Z,22187
2019-02-03T12:26:49.472Z,22070
2019-02-03T12:27:19.581Z,22087
2019-02-03T12:27:49.591Z,22010
2019-02-03T12:28:19.573Z,21947
2019-02-03T12:28:49.629Z,21653
2019-02-03T12:29:19.681Z,21233
2019-02-03T12:29:49.727Z,21027
2019-02-03T12:30:19.695Z,21357
2019-02-03T12:30:49.785Z,21457
2019-02-03T12:31:19.755Z,21483
2019-02-03T12:31:49.847Z,21170
2019-02-03T12:32:19.857Z,21113
2019-02-03T12:32:49.869Z,20377
2019-02-03T12:33:19.888Z,19120
2019-02-03T12:33:49.949Z,19287
2019-02-03T12:34:19.942Z,18733
2019-02-03T12:34:49.997Z,18623
2019-02-03T12:35:19.997Z,18540
2019-02-03T12:35:50.036Z,18877
2019-02-03T12:36:20.054Z,19220
2019-02-03T12:36:50.225Z,19373
2019-02-03T12:37:20.199Z,19617
2019-02-03T12:37:50.194Z,19763
2019-02-03T12:38:20.228Z,19167
2019-02-03T12:38:50.336Z,18470
2019-02-03T12:39:20.279Z,17690
2019-02-03T12:39:50.347Z,17097
2019-02-03T12:40:20.323Z,17317
2019-02-03T12:40:50.367Z,17587
2019-02-03T12:41:20.411Z,17953
2019-02-03T12:41:50.504Z,17520
2019-02-03T12:42:20.489Z,16290
2019-02-03T12:42:50.640Z,15880
2019-02-03T12:43:20.539Z,16207
2019-02-03T12:43:50.601Z,16497
2019-02-03T12:44:20.583Z,17270
2019-02-03T12:44:50.622Z,18270
2019-02-03T12:45:20.721Z,18700
2019-02-03T12:45:50.749Z,18450
2019-02-03T12:46:20.673Z,18403
2019-02-03T12:46:50.828Z,18997
2019-02-03T12:47:20.741Z,19350
2019-02-03T12:47:50.833Z,19237
2019-02-03T12:48:20.843Z,19543
2019-02-03T12:48:50.871Z,20327
2019-02-03T12:49:20.899Z,20517
2019-02-03T12:49:50.915Z,20820
2019-02-03T12:50:21.028Z,20667
2019-02-03T12:50:50.991Z,20427
2019-02-03T12:51:21.036Z,20580
2019-02-03T12:51:51.059Z,20547
2019-02-03T12:52:21.092Z,20560
2019-02-03T12:52:51.110Z,20520
2019-02-03T12:53:21.176Z,20427
2019-02-03T12:53:51.198Z,20337
2019-02-03T12:54:21.205Z,20450
2019-02-03T12:54:51.233Z,20353
2019-02-03T12:55:21.302Z,20397
2019-02-03T12:55:51.305Z,20377
2019-02-03T12:56:21.283Z,20480
2019-02-03T12:56:51.346Z,20553
2019-02-03T12:57:21.385Z,20513
2019-02-03T12:57:51.396Z,20483
2019-02-03T12:58:21.459Z,20617
2019-02-03T12:58:51.472Z,20633
2019-02-03T12:59:21.517Z,20557
2019-02-03T12:59:51.519Z,20607
2019-02-03T13:00:21.809Z,20430
2019-02-03T13:00:51.662Z,20657
2019-02-03T13:01:21.622Z,20617
2019-02-03T13:01:52.005Z,20540
2019-02-03T13:02:21.655Z,20470
2019-02-03T13:02:51.813Z,20413
2019-02-03T13:03:21.762Z,20367
2019-02-03T13:03:51.778Z,20330
2019-02-03T13:04:21.965Z,20290
2019-02-03T13:04:51.823Z,20243
2019-02-03T13:05:21.949Z,20077
2019-02-03T13:05:51.900Z,19990
2019-02-03T13:06:21.943Z,20060
2019-02-03T13:06:51.932Z,20080
2019-02-03T13:07:22.006Z,19997
2019-02-03T13:07:52.007Z,19973
2019-02-03T13:08:22.082Z,19963
2019-02-03T13:08:52.304Z,19923
2019-02-03T13:09:22.141Z,19900
2019-02-03T13:09:52.378Z,19983
2019-02-03T13:10:22.255Z,19977
2019-02-03T13:10:52.213Z,19917
2019-02-03T13:11:22.265Z,19890
2019-02-03T13:11:52.294Z,19673
2019-02-03T13:12:24.792Z,19740
2019-02-03T13:12:52.358Z,19563
2019-02-03T13:13:22.370Z,19447
2019-02-03T13:13:52.395Z,19363
2019-02-03T13:14:22.410Z,19447
2019-02-03T13:14:52.464Z,19360
2019-02-03T13:15:22.531Z,19280
2019-02-03T13:15:52.585Z,18980
2019-02-03T13:16:22.570Z,18893
2019-02-03T13:16:52.562Z,18903
2019-02-03T13:17:25.433Z,19067
2019-02-03T13:17:52.641Z,19060
2019-02-03T13:18:22.638Z,18830
2019-02-03T13:18:52.683Z,18980
2019-02-03T13:19:22.715Z,19067
2019-02-03T13:19:52.752Z,18850
2019-02-03T13:20:22.837Z,19247
2019-02-03T13:20:52.792Z,19250
2019-02-03T13:21:22.894Z,19310
2019-02-03T13:21:52.896Z,19263
2019-02-03T13:22:22.898Z,19260
2019-02-03T13:22:52.911Z,18940
2019-02-03T13:23:22.943Z,19317
2019-02-03T13:23:52.977Z,19343
2019-02-03T13:24:23.049Z,19287
2019-02-03T13:24:53.096Z,19327